sensor_id;sensor_type;location;lat;lon;timestamp;temperature;humidity
27848;DHT22;15212;48.830;8.730;2023-05-07T00:02:12;12.50;99.90
27848;DHT22;15212;48.830;8.730;2023-05-07T00:04:40;12.50;99.90
27848;DHT22;15212;48.830;8.730;2023-05-07T00:07:09;12.60;99.90
27848;DHT22;15212;48.830;8.730;2023-05-07T00:09:37;12.60;99.90
27848;DHT22;15212;48.830;8.730;2023-05-07T00:12:06;12.70;99.90
27848;DHT22;15212;48.830;8.730;2023-05-07T00:14:35;12.70;99.90
27848;DHT22;15212;48.830;8.730;2023-05-07T00:17:04;12.80;99.90
27848;DHT22;15212;48.830;8.730;2023-05-07T00:19:32;12.80;99.90
27848;DHT22;15212;48.830;8.730;2023-05-07T00:22:01;12.80;99.90
27848;DHT22;15212;48.830;8.730;2023-05-07T00:24:29;12.80;99.90
27848;DHT22;15212;48.830;8.730;2023-05-07T00:26:57;12.80;99.90
27848;DHT22;15212;48.830;8.730;2023-05-07T00:29:26;12.80;99.90
27848;DHT22;15212;48.830;8.730;2023-05-07T00:31:55;12.80;99.90
27848;DHT22;15212;48.830;8.730;2023-05-07T00:34:23;12.80;99.90
27848;DHT22;15212;48.830;8.730;2023-05-07T00:36:51;12.70;99.90
27848;DHT22;15212;48.830;8.730;2023-05-07T00:39:20;12.80;99.90
27848;DHT22;15212;48.830;8.730;2023-05-07T00:41:48;12.80;99.90
27848;DHT22;15212;48.830;8.730;2023-05-07T00:44:17;12.90;99.90
27848;DHT22;15212;48.830;8.730;2023-05-07T00:46:46;12.90;99.90
27848;DHT22;15212;48.830;8.730;2023-05-07T00:49:16;12.90;99.90
27848;DHT22;15212;48.830;8.730;2023-05-07T00:51:45;12.90;99.90
27848;DHT22;15212;48.830;8.730;2023-05-07T00:54:14;12.90;99.90
27848;DHT22;15212;48.830;8.730;2023-05-07T00:56:42;12.90;99.90
27848;DHT22;15212;48.830;8.730;2023-05-07T00:59:12;12.80;99.90
27848;DHT22;15212;48.830;8.730;2023-05-07T01:01:40;12.80;99.90
27848;DHT22;15212;48.830;8.730;2023-05-07T01:04:08;12.70;99.90
27848;DHT22;15212;48.830;8.730;2023-05-07T01:06:37;12.70;99.90
27848;DHT22;15212;48.830;8.730;2023-05-07T01:09:06;12.70;99.90
27848;DHT22;15212;48.830;8.730;2023-05-07T01:11:35;12.60;99.90
27848;DHT22;15212;48.830;8.730;2023-05-07T01:14:04;12.60;99.90
27848;DHT22;15212;48.830;8.730;2023-05-07T01:16:33;12.60;99.90
27848;DHT22;15212;48.830;8.730;2023-05-07T01:19:01;12.60;99.90
27848;DHT22;15212;48.830;8.730;2023-05-07T01:21:32;12.60;99.90
27848;DHT22;15212;48.830;8.730;2023-05-07T01:24:01;12.50;99.90
27848;DHT22;15212;48.830;8.730;2023-05-07T01:26:30;12.50;99.90
27848;DHT22;15212;48.830;8.730;2023-05-07T01:28:58;12.50;99.90
27848;DHT22;15212;48.830;8.730;2023-05-07T01:31:27;12.40;99.90
27848;DHT22;15212;48.830;8.730;2023-05-07T01:33:57;12.40;99.90
27848;DHT22;15212;48.830;8.730;2023-05-07T01:36:29;12.30;99.90
27848;DHT22;15212;48.830;8.730;2023-05-07T01:38:58;12.30;99.90
27848;DHT22;15212;48.830;8.730;2023-05-07T01:41:27;12.20;99.90
27848;DHT22;15212;48.830;8.730;2023-05-07T01:43:57;12.20;99.90
27848;DHT22;15212;48.830;8.730;2023-05-07T01:46:27;12.20;99.90
27848;DHT22;15212;48.830;8.730;2023-05-07T01:48:55;12.30;99.90
27848;DHT22;15212;48.830;8.730;2023-05-07T01:51:23;12.30;99.90
27848;DHT22;15212;48.830;8.730;2023-05-07T01:53:53;12.40;99.90
27848;DHT22;15212;48.830;8.730;2023-05-07T01:56:21;12.40;99.90
27848;DHT22;15212;48.830;8.730;2023-05-07T01:58:51;12.50;99.90
27848;DHT22;15212;48.830;8.730;2023-05-07T02:01:20;12.50;99.90
27848;DHT22;15212;48.830;8.730;2023-05-07T02:03:48;12.50;99.90
27848;DHT22;15212;48.830;8.730;2023-05-07T02:06:16;12.70;99.90
27848;DHT22;15212;48.830;8.730;2023-05-07T02:08:46;12.80;99.90
27848;DHT22;15212;48.830;8.730;2023-05-07T02:11:14;12.90;99.90
27848;DHT22;15212;48.830;8.730;2023-05-07T02:13:43;12.90;99.90
27848;DHT22;15212;48.830;8.730;2023-05-07T02:16:11;13.00;99.90
27848;DHT22;15212;48.830;8.730;2023-05-07T02:18:40;13.00;99.90
27848;DHT22;15212;48.830;8.730;2023-05-07T02:21:09;13.10;99.90
27848;DHT22;15212;48.830;8.730;2023-05-07T02:23:37;13.10;99.90
27848;DHT22;15212;48.830;8.730;2023-05-07T02:26:06;13.10;99.90
27848;DHT22;15212;48.830;8.730;2023-05-07T02:28:34;13.00;99.90
27848;DHT22;15212;48.830;8.730;2023-05-07T02:31:03;13.00;99.90
27848;DHT22;15212;48.830;8.730;2023-05-07T02:33:32;13.00;99.90
27848;DHT22;15212;48.830;8.730;2023-05-07T02:36:08;13.00;99.90
27848;DHT22;15212;48.830;8.730;2023-05-07T02:38:38;13.00;99.90
27848;DHT22;15212;48.830;8.730;2023-05-07T02:41:06;12.90;99.90
27848;DHT22;15212;48.830;8.730;2023-05-07T02:43:34;12.90;99.90
27848;DHT22;15212;48.830;8.730;2023-05-07T02:46:08;12.90;99.90
27848;DHT22;15212;48.830;8.730;2023-05-07T02:48:36;12.80;99.90
27848;DHT22;15212;48.830;8.730;2023-05-07T02:51:05;12.80;99.90
27848;DHT22;15212;48.830;8.730;2023-05-07T02:53:33;12.80;99.90
27848;DHT22;15212;48.830;8.730;2023-05-07T02:56:02;12.80;99.90
27848;DHT22;15212;48.830;8.730;2023-05-07T02:58:32;12.80;99.90
27848;DHT22;15212;48.830;8.730;2023-05-07T03:01:00;12.80;99.90
27848;DHT22;15212;48.830;8.730;2023-05-07T03:03:28;12.80;99.90
27848;DHT22;15212;48.830;8.730;2023-05-07T03:05:57;12.70;99.90
27848;DHT22;15212;48.830;8.730;2023-05-07T03:08:25;12.70;99.90
27848;DHT22;15212;48.830;8.730;2023-05-07T03:10:54;12.70;99.90
27848;DHT22;15212;48.830;8.730;2023-05-07T03:13:22;12.70;99.90
27848;DHT22;15212;48.830;8.730;2023-05-07T03:15:51;12.50;99.90
27848;DHT22;15212;48.830;8.730;2023-05-07T03:18:19;12.50;99.90
27848;DHT22;15212;48.830;8.730;2023-05-07T03:20:48;12.40;99.90
27848;DHT22;15212;48.830;8.730;2023-05-07T03:23:17;12.40;99.90
27848;DHT22;15212;48.830;8.730;2023-05-07T03:25:45;12.30;99.90
27848;DHT22;15212;48.830;8.730;2023-05-07T03:28:13;12.30;99.90
27848;DHT22;15212;48.830;8.730;2023-05-07T03:30:42;12.30;99.90
27848;DHT22;15212;48.830;8.730;2023-05-07T03:33:10;12.40;99.90
27848;DHT22;15212;48.830;8.730;2023-05-07T03:35:38;12.40;99.90
27848;DHT22;15212;48.830;8.730;2023-05-07T03:38:07;12.40;99.90
27848;DHT22;15212;48.830;8.730;2023-05-07T03:40:36;12.40;99.90
27848;DHT22;15212;48.830;8.730;2023-05-07T03:43:04;12.40;99.90
27848;DHT22;15212;48.830;8.730;2023-05-07T03:45:32;12.50;99.90
27848;DHT22;15212;48.830;8.730;2023-05-07T03:48:01;12.50;99.90
27848;DHT22;15212;48.830;8.730;2023-05-07T03:50:29;12.60;99.90
27848;DHT22;15212;48.830;8.730;2023-05-07T03:52:58;12.70;99.90
27848;DHT22;15212;48.830;8.730;2023-05-07T03:55:26;12.80;99.90
27848;DHT22;15212;48.830;8.730;2023-05-07T03:57:55;12.90;99.90
27848;DHT22;15212;48.830;8.730;2023-05-07T04:00:24;12.90;99.90
27848;DHT22;15212;48.830;8.730;2023-05-07T04:02:52;12.90;99.90
27848;DHT22;15212;48.830;8.730;2023-05-07T04:05:21;13.00;99.90
27848;DHT22;15212;48.830;8.730;2023-05-07T04:07:49;13.00;99.90
27848;DHT22;15212;48.830;8.730;2023-05-07T04:10:18;13.00;99.90
27848;DHT22;15212;48.830;8.730;2023-05-07T04:12:46;13.10;99.90
27848;DHT22;15212;48.830;8.730;2023-05-07T04:15:14;13.10;99.90
27848;DHT22;15212;48.830;8.730;2023-05-07T04:17:43;13.10;99.90
27848;DHT22;15212;48.830;8.730;2023-05-07T04:20:16;13.00;99.90
27848;DHT22;15212;48.830;8.730;2023-05-07T04:22:44;13.00;99.90
27848;DHT22;15212;48.830;8.730;2023-05-07T04:25:13;12.90;99.90
27848;DHT22;15212;48.830;8.730;2023-05-07T04:27:41;12.80;99.90
27848;DHT22;15212;48.830;8.730;2023-05-07T04:30:10;12.80;99.90
27848;DHT22;15212;48.830;8.730;2023-05-07T04:32:39;12.80;99.90
27848;DHT22;15212;48.830;8.730;2023-05-07T04:35:08;12.70;99.90
27848;DHT22;15212;48.830;8.730;2023-05-07T04:37:36;12.60;99.90
27848;DHT22;15212;48.830;8.730;2023-05-07T04:40:06;12.60;99.90
27848;DHT22;15212;48.830;8.730;2023-05-07T04:42:34;12.60;99.90
27848;DHT22;15212;48.830;8.730;2023-05-07T04:45:03;12.50;99.90
27848;DHT22;15212;48.830;8.730;2023-05-07T04:47:32;12.60;99.90
27848;DHT22;15212;48.830;8.730;2023-05-07T04:50:01;12.60;99.90
27848;DHT22;15212;48.830;8.730;2023-05-07T04:52:29;12.60;99.90
27848;DHT22;15212;48.830;8.730;2023-05-07T04:54:59;12.50;99.90
27848;DHT22;15212;48.830;8.730;2023-05-07T04:57:28;12.50;99.90
27848;DHT22;15212;48.830;8.730;2023-05-07T04:59:56;12.40;99.90
27848;DHT22;15212;48.830;8.730;2023-05-07T05:02:25;12.40;99.90
27848;DHT22;15212;48.830;8.730;2023-05-07T05:04:53;12.40;99.90
27848;DHT22;15212;48.830;8.730;2023-05-07T05:07:22;12.50;99.90
27848;DHT22;15212;48.830;8.730;2023-05-07T05:09:50;12.50;99.90
27848;DHT22;15212;48.830;8.730;2023-05-07T05:12:18;12.70;99.90
27848;DHT22;15212;48.830;8.730;2023-05-07T05:14:47;12.80;99.90
27848;DHT22;15212;48.830;8.730;2023-05-07T05:17:15;13.00;99.90
27848;DHT22;15212;48.830;8.730;2023-05-07T05:19:43;13.10;99.90
27848;DHT22;15212;48.830;8.730;2023-05-07T05:22:12;13.40;99.90
27848;DHT22;15212;48.830;8.730;2023-05-07T05:24:40;13.60;99.90
27848;DHT22;15212;48.830;8.730;2023-05-07T05:27:09;13.90;99.90
27848;DHT22;15212;48.830;8.730;2023-05-07T05:29:37;14.10;99.90
27848;DHT22;15212;48.830;8.730;2023-05-07T05:32:05;14.40;99.90
27848;DHT22;15212;48.830;8.730;2023-05-07T05:34:34;14.60;99.90
27848;DHT22;15212;48.830;8.730;2023-05-07T05:37:02;14.70;99.90
27848;DHT22;15212;48.830;8.730;2023-05-07T05:39:30;14.80;99.90
27848;DHT22;15212;48.830;8.730;2023-05-07T05:41:59;14.90;99.90
27848;DHT22;15212;48.830;8.730;2023-05-07T05:44:27;15.00;99.90
27848;DHT22;15212;48.830;8.730;2023-05-07T05:46:56;15.10;99.90
27848;DHT22;15212;48.830;8.730;2023-05-07T05:49:25;15.20;99.90
27848;DHT22;15212;48.830;8.730;2023-05-07T05:51:54;15.30;99.90
27848;DHT22;15212;48.830;8.730;2023-05-07T05:54:22;15.30;99.90
27848;DHT22;15212;48.830;8.730;2023-05-07T05:56:50;15.40;99.90
27848;DHT22;15212;48.830;8.730;2023-05-07T05:59:19;15.50;99.90
27848;DHT22;15212;48.830;8.730;2023-05-07T06:01:47;15.60;99.90
27848;DHT22;15212;48.830;8.730;2023-05-07T06:04:16;16.00;99.90
27848;DHT22;15212;48.830;8.730;2023-05-07T06:06:44;16.90;99.90
27848;DHT22;15212;48.830;8.730;2023-05-07T06:09:13;17.90;99.90
27848;DHT22;15212;48.830;8.730;2023-05-07T06:11:41;19.00;99.90
27848;DHT22;15212;48.830;8.730;2023-05-07T06:14:09;20.00;99.90
27848;DHT22;15212;48.830;8.730;2023-05-07T06:16:38;20.80;99.90
27848;DHT22;15212;48.830;8.730;2023-05-07T06:19:06;21.40;99.90
27848;DHT22;15212;48.830;8.730;2023-05-07T06:21:34;21.80;99.90
27848;DHT22;15212;48.830;8.730;2023-05-07T06:24:03;22.40;99.90
27848;DHT22;15212;48.830;8.730;2023-05-07T06:26:31;22.70;99.90
27848;DHT22;15212;48.830;8.730;2023-05-07T06:29:00;23.30;99.90
27848;DHT22;15212;48.830;8.730;2023-05-07T06:31:30;23.80;99.90
27848;DHT22;15212;48.830;8.730;2023-05-07T06:33:58;24.10;99.90
27848;DHT22;15212;48.830;8.730;2023-05-07T06:36:28;24.60;99.90
27848;DHT22;15212;48.830;8.730;2023-05-07T06:38:57;25.10;99.90
27848;DHT22;15212;48.830;8.730;2023-05-07T06:41:25;25.50;99.90
27848;DHT22;15212;48.830;8.730;2023-05-07T06:43:54;25.80;99.90
27848;DHT22;15212;48.830;8.730;2023-05-07T06:46:22;25.80;99.90
27848;DHT22;15212;48.830;8.730;2023-05-07T06:48:50;25.80;99.90
27848;DHT22;15212;48.830;8.730;2023-05-07T06:51:19;25.50;99.90
27848;DHT22;15212;48.830;8.730;2023-05-07T06:53:47;25.40;99.90
27848;DHT22;15212;48.830;8.730;2023-05-07T06:56:16;25.60;99.90
27848;DHT22;15212;48.830;8.730;2023-05-07T06:58:45;25.60;99.90
27848;DHT22;15212;48.830;8.730;2023-05-07T07:01:13;25.40;99.90
27848;DHT22;15212;48.830;8.730;2023-05-07T07:03:42;25.00;99.90
27848;DHT22;15212;48.830;8.730;2023-05-07T07:06:10;24.30;99.90
27848;DHT22;15212;48.830;8.730;2023-05-07T07:08:38;23.50;99.90
27848;DHT22;15212;48.830;8.730;2023-05-07T07:11:07;22.80;99.90
27848;DHT22;15212;48.830;8.730;2023-05-07T07:13:37;22.70;99.90
27848;DHT22;15212;48.830;8.730;2023-05-07T07:16:06;22.30;99.90
27848;DHT22;15212;48.830;8.730;2023-05-07T07:18:34;21.70;99.90
27848;DHT22;15212;48.830;8.730;2023-05-07T07:21:03;21.20;99.90
27848;DHT22;15212;48.830;8.730;2023-05-07T07:23:32;20.70;99.90
27848;DHT22;15212;48.830;8.730;2023-05-07T07:26:00;20.20;99.90
27848;DHT22;15212;48.830;8.730;2023-05-07T07:28:28;19.70;99.90
27848;DHT22;15212;48.830;8.730;2023-05-07T07:30:57;19.30;99.90
27848;DHT22;15212;48.830;8.730;2023-05-07T07:33:25;19.00;99.90
27848;DHT22;15212;48.830;8.730;2023-05-07T07:35:55;18.70;99.90
27848;DHT22;15212;48.830;8.730;2023-05-07T07:38:23;18.50;99.90
27848;DHT22;15212;48.830;8.730;2023-05-07T07:40:52;18.30;99.90
27848;DHT22;15212;48.830;8.730;2023-05-07T07:43:21;18.30;99.90
27848;DHT22;15212;48.830;8.730;2023-05-07T07:45:49;18.20;99.90
27848;DHT22;15212;48.830;8.730;2023-05-07T07:48:17;18.30;99.90
27848;DHT22;15212;48.830;8.730;2023-05-07T07:50:50;18.40;99.90
27848;DHT22;15212;48.830;8.730;2023-05-07T07:53:19;18.40;99.90
27848;DHT22;15212;48.830;8.730;2023-05-07T07:55:47;18.60;99.90
27848;DHT22;15212;48.830;8.730;2023-05-07T07:58:15;18.70;99.90
27848;DHT22;15212;48.830;8.730;2023-05-07T08:00:44;18.70;99.90
27848;DHT22;15212;48.830;8.730;2023-05-07T08:03:13;18.90;99.90
27848;DHT22;15212;48.830;8.730;2023-05-07T08:05:43;19.00;99.90
27848;DHT22;15212;48.830;8.730;2023-05-07T08:08:11;19.20;99.90
27848;DHT22;15212;48.830;8.730;2023-05-07T08:10:40;19.50;99.90
27848;DHT22;15212;48.830;8.730;2023-05-07T08:13:08;19.80;99.90
27848;DHT22;15212;48.830;8.730;2023-05-07T08:15:37;20.10;99.90
27848;DHT22;15212;48.830;8.730;2023-05-07T08:18:05;20.40;99.90
27848;DHT22;15212;48.830;8.730;2023-05-07T08:20:34;20.70;99.90
27848;DHT22;15212;48.830;8.730;2023-05-07T08:23:04;20.90;99.90
27848;DHT22;15212;48.830;8.730;2023-05-07T08:25:34;21.10;99.90
27848;DHT22;15212;48.830;8.730;2023-05-07T08:28:02;21.30;99.90
27848;DHT22;15212;48.830;8.730;2023-05-07T08:30:31;21.40;99.90
27848;DHT22;15212;48.830;8.730;2023-05-07T08:33:00;21.50;99.90
27848;DHT22;15212;48.830;8.730;2023-05-07T08:35:28;21.40;99.90
27848;DHT22;15212;48.830;8.730;2023-05-07T08:37:57;21.40;99.90
27848;DHT22;15212;48.830;8.730;2023-05-07T08:40:26;21.40;99.90
27848;DHT22;15212;48.830;8.730;2023-05-07T08:42:55;21.50;99.90
27848;DHT22;15212;48.830;8.730;2023-05-07T08:45:24;21.70;99.90
27848;DHT22;15212;48.830;8.730;2023-05-07T08:47:58;21.80;99.90
27848;DHT22;15212;48.830;8.730;2023-05-07T08:50:26;22.00;99.90
27848;DHT22;15212;48.830;8.730;2023-05-07T08:52:55;22.00;99.90
27848;DHT22;15212;48.830;8.730;2023-05-07T08:55:24;22.10;99.90
27848;DHT22;15212;48.830;8.730;2023-05-07T08:57:53;22.20;99.90
27848;DHT22;15212;48.830;8.730;2023-05-07T09:00:21;22.30;99.90
27848;DHT22;15212;48.830;8.730;2023-05-07T09:02:50;22.40;99.90
27848;DHT22;15212;48.830;8.730;2023-05-07T09:05:20;22.50;99.90
27848;DHT22;15212;48.830;8.730;2023-05-07T09:07:48;22.50;99.90
27848;DHT22;15212;48.830;8.730;2023-05-07T09:10:17;22.60;99.90
27848;DHT22;15212;48.830;8.730;2023-05-07T09:12:47;22.50;99.90
27848;DHT22;15212;48.830;8.730;2023-05-07T09:15:15;22.60;99.90
27848;DHT22;15212;48.830;8.730;2023-05-07T09:17:45;22.60;99.90
27848;DHT22;15212;48.830;8.730;2023-05-07T09:20:13;22.60;99.90
27848;DHT22;15212;48.830;8.730;2023-05-07T09:22:42;22.50;99.90
27848;DHT22;15212;48.830;8.730;2023-05-07T09:25:11;22.50;99.90
27848;DHT22;15212;48.830;8.730;2023-05-07T09:27:40;22.50;99.90
27848;DHT22;15212;48.830;8.730;2023-05-07T09:30:10;22.20;99.90
27848;DHT22;15212;48.830;8.730;2023-05-07T09:32:38;21.90;99.90
27848;DHT22;15212;48.830;8.730;2023-05-07T09:35:14;21.60;99.90
27848;DHT22;15212;48.830;8.730;2023-05-07T09:37:44;21.30;99.90
27848;DHT22;15212;48.830;8.730;2023-05-07T09:40:27;21.00;99.90
27848;DHT22;15212;48.830;8.730;2023-05-07T09:43:07;20.80;99.90
27848;DHT22;15212;48.830;8.730;2023-05-07T09:45:38;20.60;99.90
27848;DHT22;15212;48.830;8.730;2023-05-07T09:48:06;20.40;99.90
27848;DHT22;15212;48.830;8.730;2023-05-07T09:50:42;20.30;99.90
27848;DHT22;15212;48.830;8.730;2023-05-07T09:53:12;20.30;99.90
27848;DHT22;15212;48.830;8.730;2023-05-07T09:55:41;20.20;99.90
27848;DHT22;15212;48.830;8.730;2023-05-07T09:58:12;20.10;99.90
27848;DHT22;15212;48.830;8.730;2023-05-07T10:00:41;20.00;99.90
27848;DHT22;15212;48.830;8.730;2023-05-07T10:03:09;20.00;99.90
27848;DHT22;15212;48.830;8.730;2023-05-07T10:05:39;19.90;99.90
27848;DHT22;15212;48.830;8.730;2023-05-07T10:08:08;19.80;99.90
27848;DHT22;15212;48.830;8.730;2023-05-07T10:10:38;19.70;99.90
27848;DHT22;15212;48.830;8.730;2023-05-07T10:13:07;19.70;99.90
27848;DHT22;15212;48.830;8.730;2023-05-07T10:15:37;19.60;99.90
27848;DHT22;15212;48.830;8.730;2023-05-07T10:18:06;19.60;99.90
27848;DHT22;15212;48.830;8.730;2023-05-07T10:20:36;19.50;99.90
27848;DHT22;15212;48.830;8.730;2023-05-07T10:23:06;19.40;99.90
27848;DHT22;15212;48.830;8.730;2023-05-07T10:25:36;19.20;99.90
27848;DHT22;15212;48.830;8.730;2023-05-07T10:28:08;19.20;99.90
27848;DHT22;15212;48.830;8.730;2023-05-07T10:31:03;19.20;99.90
27848;DHT22;15212;48.830;8.730;2023-05-07T10:33:36;19.00;99.90
27848;DHT22;15212;48.830;8.730;2023-05-07T10:36:06;18.90;99.90
27848;DHT22;15212;48.830;8.730;2023-05-07T10:38:34;18.70;99.90
27848;DHT22;15212;48.830;8.730;2023-05-07T10:41:03;18.70;99.90
27848;DHT22;15212;48.830;8.730;2023-05-07T10:43:42;18.50;99.90
27848;DHT22;15212;48.830;8.730;2023-05-07T10:46:14;18.50;99.90
27848;DHT22;15212;48.830;8.730;2023-05-07T10:51:35;18.50;99.90
27848;DHT22;15212;48.830;8.730;2023-05-07T10:56:44;18.60;99.90
27848;DHT22;15212;48.830;8.730;2023-05-07T10:59:31;18.50;99.90
27848;DHT22;15212;48.830;8.730;2023-05-07T11:02:02;18.50;99.90
27848;DHT22;15212;48.830;8.730;2023-05-07T11:04:32;18.60;99.90
27848;DHT22;15212;48.830;8.730;2023-05-07T11:07:14;18.60;99.90
27848;DHT22;15212;48.830;8.730;2023-05-07T11:09:55;18.80;99.90
27848;DHT22;15212;48.830;8.730;2023-05-07T11:15:12;19.00;99.90
27848;DHT22;15212;48.830;8.730;2023-05-07T11:17:56;19.10;99.90
27848;DHT22;15212;48.830;8.730;2023-05-07T11:20:46;19.20;99.90
27848;DHT22;15212;48.830;8.730;2023-05-07T11:26:10;19.50;99.90
27848;DHT22;15212;48.830;8.730;2023-05-07T11:28:40;19.60;99.90
27848;DHT22;15212;48.830;8.730;2023-05-07T11:31:10;19.70;99.90
27848;DHT22;15212;48.830;8.730;2023-05-07T11:33:39;19.70;99.90
27848;DHT22;15212;48.830;8.730;2023-05-07T11:36:09;19.80;99.90
27848;DHT22;15212;48.830;8.730;2023-05-07T11:38:38;19.90;99.90
27848;DHT22;15212;48.830;8.730;2023-05-07T11:41:07;20.00;99.90
27848;DHT22;15212;48.830;8.730;2023-05-07T11:43:36;20.00;99.90
27848;DHT22;15212;48.830;8.730;2023-05-07T11:46:13;20.10;99.90
27848;DHT22;15212;48.830;8.730;2023-05-07T11:48:39;20.00;99.90
27848;DHT22;15212;48.830;8.730;2023-05-07T11:51:08;20.10;99.90
27848;DHT22;15212;48.830;8.730;2023-05-07T11:53:40;20.20;99.90
27848;DHT22;15212;48.830;8.730;2023-05-07T11:56:15;20.30;99.90
27848;DHT22;15212;48.830;8.730;2023-05-07T11:58:45;20.50;99.90
27848;DHT22;15212;48.830;8.730;2023-05-07T12:01:15;20.70;99.90
27848;DHT22;15212;48.830;8.730;2023-05-07T12:03:45;21.00;99.90
27848;DHT22;15212;48.830;8.730;2023-05-07T12:06:15;21.20;99.90
27848;DHT22;15212;48.830;8.730;2023-05-07T12:08:45;21.20;99.90
27848;DHT22;15212;48.830;8.730;2023-05-07T12:11:16;21.30;99.90
27848;DHT22;15212;48.830;8.730;2023-05-07T12:13:46;21.20;99.90
27848;DHT22;15212;48.830;8.730;2023-05-07T12:16:15;21.20;99.90
27848;DHT22;15212;48.830;8.730;2023-05-07T12:18:44;21.20;99.90
27848;DHT22;15212;48.830;8.730;2023-05-07T12:21:13;21.10;99.90
27848;DHT22;15212;48.830;8.730;2023-05-07T12:23:43;21.10;99.90
27848;DHT22;15212;48.830;8.730;2023-05-07T12:26:12;20.90;99.90
27848;DHT22;15212;48.830;8.730;2023-05-07T12:28:40;20.80;99.90
27848;DHT22;15212;48.830;8.730;2023-05-07T12:31:08;20.60;99.90
27848;DHT22;15212;48.830;8.730;2023-05-07T12:33:37;20.60;99.90
27848;DHT22;15212;48.830;8.730;2023-05-07T12:36:08;20.50;99.90
27848;DHT22;15212;48.830;8.730;2023-05-07T12:38:39;20.40;99.90
27848;DHT22;15212;48.830;8.730;2023-05-07T12:41:09;20.30;99.90
27848;DHT22;15212;48.830;8.730;2023-05-07T12:43:38;20.10;99.90
27848;DHT22;15212;48.830;8.730;2023-05-07T12:46:07;20.00;99.90
27848;DHT22;15212;48.830;8.730;2023-05-07T12:48:43;19.90;99.90
27848;DHT22;15212;48.830;8.730;2023-05-07T12:51:13;19.70;99.90
27848;DHT22;15212;48.830;8.730;2023-05-07T12:53:43;19.50;99.90
27848;DHT22;15212;48.830;8.730;2023-05-07T12:56:11;19.30;99.90
27848;DHT22;15212;48.830;8.730;2023-05-07T12:58:40;19.20;99.90
27848;DHT22;15212;48.830;8.730;2023-05-07T13:01:09;19.00;99.90
27848;DHT22;15212;48.830;8.730;2023-05-07T13:03:39;18.90;99.90
27848;DHT22;15212;48.830;8.730;2023-05-07T13:06:08;18.70;99.90
27848;DHT22;15212;48.830;8.730;2023-05-07T13:08:40;18.70;99.90
27848;DHT22;15212;48.830;8.730;2023-05-07T13:11:12;18.50;99.90
27848;DHT22;15212;48.830;8.730;2023-05-07T13:13:41;18.40;99.90
27848;DHT22;15212;48.830;8.730;2023-05-07T13:16:10;18.30;99.90
27848;DHT22;15212;48.830;8.730;2023-05-07T13:18:40;18.30;99.90
27848;DHT22;15212;48.830;8.730;2023-05-07T13:21:10;18.20;99.90
27848;DHT22;15212;48.830;8.730;2023-05-07T13:23:39;18.10;99.90
27848;DHT22;15212;48.830;8.730;2023-05-07T13:26:07;18.00;99.90
27848;DHT22;15212;48.830;8.730;2023-05-07T13:28:37;17.90;99.90
27848;DHT22;15212;48.830;8.730;2023-05-07T13:31:05;17.70;99.90
27848;DHT22;15212;48.830;8.730;2023-05-07T13:33:33;17.60;99.90
27848;DHT22;15212;48.830;8.730;2023-05-07T13:36:02;17.50;99.90
27848;DHT22;15212;48.830;8.730;2023-05-07T13:38:32;17.40;99.90
27848;DHT22;15212;48.830;8.730;2023-05-07T13:41:00;17.30;99.90
27848;DHT22;15212;48.830;8.730;2023-05-07T13:43:29;17.10;99.90
27848;DHT22;15212;48.830;8.730;2023-05-07T13:45:58;16.90;99.90
27848;DHT22;15212;48.830;8.730;2023-05-07T13:48:27;16.70;99.90
27848;DHT22;15212;48.830;8.730;2023-05-07T13:50:56;16.50;99.90
27848;DHT22;15212;48.830;8.730;2023-05-07T13:53:24;16.30;99.90
27848;DHT22;15212;48.830;8.730;2023-05-07T13:55:53;16.00;99.90
27848;DHT22;15212;48.830;8.730;2023-05-07T13:58:21;15.80;99.90
27848;DHT22;15212;48.830;8.730;2023-05-07T14:00:50;15.60;99.90
27848;DHT22;15212;48.830;8.730;2023-05-07T14:03:18;15.50;99.90
27848;DHT22;15212;48.830;8.730;2023-05-07T14:05:47;15.30;99.90
27848;DHT22;15212;48.830;8.730;2023-05-07T14:08:15;15.20;99.90
27848;DHT22;15212;48.830;8.730;2023-05-07T14:10:45;15.20;99.90
27848;DHT22;15212;48.830;8.730;2023-05-07T14:13:14;15.10;99.90
27848;DHT22;15212;48.830;8.730;2023-05-07T14:15:42;15.20;99.90
27848;DHT22;15212;48.830;8.730;2023-05-07T14:18:13;15.20;99.90
27848;DHT22;15212;48.830;8.730;2023-05-07T14:20:41;15.30;99.90
27848;DHT22;15212;48.830;8.730;2023-05-07T14:23:12;15.40;99.90
27848;DHT22;15212;48.830;8.730;2023-05-07T14:25:40;15.50;99.90
27848;DHT22;15212;48.830;8.730;2023-05-07T14:28:10;15.50;99.90
27848;DHT22;15212;48.830;8.730;2023-05-07T14:30:38;15.60;99.90
27848;DHT22;15212;48.830;8.730;2023-05-07T14:33:06;15.60;99.90
27848;DHT22;15212;48.830;8.730;2023-05-07T14:35:35;15.70;99.90
27848;DHT22;15212;48.830;8.730;2023-05-07T14:38:03;15.70;99.90
27848;DHT22;15212;48.830;8.730;2023-05-07T14:40:31;15.70;99.90
27848;DHT22;15212;48.830;8.730;2023-05-07T14:43:00;15.70;99.90
27848;DHT22;15212;48.830;8.730;2023-05-07T14:45:28;15.70;99.90
27848;DHT22;15212;48.830;8.730;2023-05-07T14:47:57;15.60;99.90
27848;DHT22;15212;48.830;8.730;2023-05-07T14:50:25;15.60;99.90
27848;DHT22;15212;48.830;8.730;2023-05-07T14:52:53;15.70;99.90
27848;DHT22;15212;48.830;8.730;2023-05-07T14:55:22;15.70;99.90
27848;DHT22;15212;48.830;8.730;2023-05-07T14:57:50;15.80;99.90
27848;DHT22;15212;48.830;8.730;2023-05-07T15:00:19;15.90;99.90
27848;DHT22;15212;48.830;8.730;2023-05-07T15:02:47;15.90;99.90
27848;DHT22;15212;48.830;8.730;2023-05-07T15:05:16;15.90;99.90
27848;DHT22;15212;48.830;8.730;2023-05-07T15:07:45;15.90;99.90
27848;DHT22;15212;48.830;8.730;2023-05-07T15:10:14;15.90;99.90
27848;DHT22;15212;48.830;8.730;2023-05-07T15:12:42;15.90;99.90
27848;DHT22;15212;48.830;8.730;2023-05-07T15:15:11;15.90;99.90
27848;DHT22;15212;48.830;8.730;2023-05-07T15:17:39;16.00;99.90
27848;DHT22;15212;48.830;8.730;2023-05-07T15:20:08;16.00;99.90
27848;DHT22;15212;48.830;8.730;2023-05-07T15:22:36;16.00;99.90
27848;DHT22;15212;48.830;8.730;2023-05-07T15:25:05;16.10;99.90
27848;DHT22;15212;48.830;8.730;2023-05-07T15:27:33;16.00;99.90
27848;DHT22;15212;48.830;8.730;2023-05-07T15:30:02;16.10;99.90
27848;DHT22;15212;48.830;8.730;2023-05-07T15:32:31;16.20;99.90
27848;DHT22;15212;48.830;8.730;2023-05-07T15:34:59;16.20;99.90
27848;DHT22;15212;48.830;8.730;2023-05-07T15:37:28;16.20;99.90
27848;DHT22;15212;48.830;8.730;2023-05-07T15:39:58;16.20;99.90
27848;DHT22;15212;48.830;8.730;2023-05-07T15:42:28;16.30;99.90
27848;DHT22;15212;48.830;8.730;2023-05-07T15:44:56;16.30;99.90
27848;DHT22;15212;48.830;8.730;2023-05-07T15:47:26;16.30;99.90
27848;DHT22;15212;48.830;8.730;2023-05-07T15:49:55;16.30;99.90
27848;DHT22;15212;48.830;8.730;2023-05-07T15:52:23;16.30;99.90
27848;DHT22;15212;48.830;8.730;2023-05-07T15:54:52;16.30;99.90